sensor_id;sensor_type;location;lat;lon;timestamp;P1;durP1;ratioP1;P2;durP2;ratioP2
11771;SDS011;12556;55.748;13.194;2022-12-31T00:01:20;7.27;;;2.73;;
11771;SDS011;12556;55.748;13.194;2022-12-31T00:03:48;3.03;;;2.50;;
11771;SDS011;12556;55.748;13.194;2022-12-31T00:06:16;4.23;;;2.80;;
11771;SDS011;12556;55.748;13.194;2022-12-31T00:08:46;6.40;;;2.80;;
11771;SDS011;12556;55.748;13.194;2022-12-31T00:11:15;6.73;;;2.40;;
11771;SDS011;12556;55.748;13.194;2022-12-31T00:13:42;3.90;;;2.37;;
11771;SDS011;12556;55.748;13.194;2022-12-31T00:16:11;2.70;;;2.23;;
11771;SDS011;12556;55.748;13.194;2022-12-31T00:18:42;6.40;;;2.70;;
11771;SDS011;12556;55.748;13.194;2022-12-31T00:21:09;5.50;;;2.43;;
11771;SDS011;12556;55.748;13.194;2022-12-31T00:23:37;3.90;;;2.73;;
11771;SDS011;12556;55.748;13.194;2022-12-31T00:26:04;4.43;;;2.67;;
11771;SDS011;12556;55.748;13.194;2022-12-31T00:28:34;3.90;;;2.33;;
11771;SDS011;12556;55.748;13.194;2022-12-31T00:31:03;4.40;;;2.83;;
11771;SDS011;12556;55.748;13.194;2022-12-31T00:33:31;8.10;;;2.43;;
11771;SDS011;12556;55.748;13.194;2022-12-31T00:36:05;4.60;;;2.50;;
11771;SDS011;12556;55.748;13.194;2022-12-31T00:38:34;5.50;;;2.43;;
11771;SDS011;12556;55.748;13.194;2022-12-31T00:41:01;5.57;;;2.77;;
11771;SDS011;12556;55.748;13.194;2022-12-31T00:43:29;7.47;;;3.60;;
11771;SDS011;12556;55.748;13.194;2022-12-31T00:45:57;3.27;;;2.70;;
11771;SDS011;12556;55.748;13.194;2022-12-31T00:48:24;3.57;;;2.83;;
11771;SDS011;12556;55.748;13.194;2022-12-31T00:50:52;3.37;;;2.73;;
11771;SDS011;12556;55.748;13.194;2022-12-31T00:53:19;7.63;;;3.27;;
11771;SDS011;12556;55.748;13.194;2022-12-31T00:55:47;4.30;;;2.60;;
11771;SDS011;12556;55.748;13.194;2022-12-31T00:58:14;4.47;;;2.63;;
11771;SDS011;12556;55.748;13.194;2022-12-31T01:00:41;5.43;;;3.30;;
11771;SDS011;12556;55.748;13.194;2022-12-31T01:03:09;5.10;;;3.20;;
11771;SDS011;12556;55.748;13.194;2022-12-31T01:05:36;6.27;;;3.67;;
11771;SDS011;12556;55.748;13.194;2022-12-31T01:08:04;4.60;;;3.00;;
11771;SDS011;12556;55.748;13.194;2022-12-31T01:10:31;5.53;;;3.70;;
11771;SDS011;12556;55.748;13.194;2022-12-31T01:13:16;5.60;;;3.50;;
11771;SDS011;12556;55.748;13.194;2022-12-31T01:15:43;11.20;;;3.83;;
11771;SDS011;12556;55.748;13.194;2022-12-31T01:18:11;5.13;;;3.00;;
11771;SDS011;12556;55.748;13.194;2022-12-31T01:20:39;4.77;;;3.00;;
11771;SDS011;12556;55.748;13.194;2022-12-31T01:23:08;4.77;;;2.80;;
11771;SDS011;12556;55.748;13.194;2022-12-31T01:25:36;10.00;;;4.10;;
11771;SDS011;12556;55.748;13.194;2022-12-31T01:28:04;6.17;;;3.37;;
11771;SDS011;12556;55.748;13.194;2022-12-31T01:30:31;7.17;;;3.60;;
11771;SDS011;12556;55.748;13.194;2022-12-31T01:32:58;5.30;;;3.13;;
11771;SDS011;12556;55.748;13.194;2022-12-31T01:35:26;7.83;;;3.47;;
11771;SDS011;12556;55.748;13.194;2022-12-31T01:37:53;7.37;;;3.17;;
11771;SDS011;12556;55.748;13.194;2022-12-31T01:40:20;11.60;;;4.37;;
11771;SDS011;12556;55.748;13.194;2022-12-31T01:42:52;10.30;;;3.60;;
11771;SDS011;12556;55.748;13.194;2022-12-31T01:45:20;7.53;;;3.17;;
11771;SDS011;12556;55.748;13.194;2022-12-31T01:47:47;6.10;;;4.00;;
11771;SDS011;12556;55.748;13.194;2022-12-31T01:50:17;5.53;;;3.70;;
11771;SDS011;12556;55.748;13.194;2022-12-31T01:52:48;6.07;;;3.57;;
11771;SDS011;12556;55.748;13.194;2022-12-31T01:55:18;6.33;;;3.63;;
11771;SDS011;12556;55.748;13.194;2022-12-31T01:57:50;5.03;;;3.43;;
11771;SDS011;12556;55.748;13.194;2022-12-31T02:00:19;6.97;;;3.73;;
11771;SDS011;12556;55.748;13.194;2022-12-31T02:02:46;8.77;;;4.43;;
11771;SDS011;12556;55.748;13.194;2022-12-31T02:05:16;6.67;;;3.90;;
11771;SDS011;12556;55.748;13.194;2022-12-31T02:07:48;6.17;;;4.10;;
11771;SDS011;12556;55.748;13.194;2022-12-31T02:10:17;8.20;;;4.20;;
11771;SDS011;12556;55.748;13.194;2022-12-31T02:12:44;7.77;;;3.90;;
11771;SDS011;12556;55.748;13.194;2022-12-31T02:15:12;7.10;;;3.43;;
11771;SDS011;12556;55.748;13.194;2022-12-31T02:17:40;10.07;;;4.40;;
11771;SDS011;12556;55.748;13.194;2022-12-31T02:20:25;6.53;;;3.70;;
11771;SDS011;12556;55.748;13.194;2022-12-31T02:26:33;9.03;;;4.20;;
11771;SDS011;12556;55.748;13.194;2022-12-31T02:29:22;9.37;;;3.70;;
11771;SDS011;12556;55.748;13.194;2022-12-31T02:32:28;6.97;;;3.83;;
11771;SDS011;12556;55.748;13.194;2022-12-31T02:35:04;5.07;;;3.50;;
11771;SDS011;12556;55.748;13.194;2022-12-31T02:37:35;10.10;;;4.43;;
11771;SDS011;12556;55.748;13.194;2022-12-31T02:40:05;10.57;;;4.37;;
11771;SDS011;12556;55.748;13.194;2022-12-31T02:42:35;8.73;;;4.10;;
11771;SDS011;12556;55.748;13.194;2022-12-31T02:45:02;5.83;;;3.93;;
11771;SDS011;12556;55.748;13.194;2022-12-31T02:47:34;10.07;;;3.70;;
11771;SDS011;12556;55.748;13.194;2022-12-31T02:50:17;5.83;;;4.10;;
11771;SDS011;12556;55.748;13.194;2022-12-31T02:52:56;7.73;;;3.70;;
11771;SDS011;12556;55.748;13.194;2022-12-31T02:55:33;6.37;;;4.17;;
11771;SDS011;12556;55.748;13.194;2022-12-31T02:58:11;10.97;;;4.47;;
11771;SDS011;12556;55.748;13.194;2022-12-31T03:00:45;6.60;;;3.80;;
11771;SDS011;12556;55.748;13.194;2022-12-31T03:03:33;9.23;;;3.87;;
11771;SDS011;12556;55.748;13.194;2022-12-31T03:06:02;7.20;;;4.20;;
11771;SDS011;12556;55.748;13.194;2022-12-31T03:08:31;13.70;;;4.40;;
11771;SDS011;12556;55.748;13.194;2022-12-31T03:11:19;11.60;;;5.00;;
11771;SDS011;12556;55.748;13.194;2022-12-31T03:13:59;10.70;;;4.47;;
11771;SDS011;12556;55.748;13.194;2022-12-31T03:16:26;10.13;;;4.40;;
11771;SDS011;12556;55.748;13.194;2022-12-31T03:18:55;11.43;;;4.87;;
11771;SDS011;12556;55.748;13.194;2022-12-31T03:21:39;12.40;;;4.17;;
11771;SDS011;12556;55.748;13.194;2022-12-31T03:24:23;13.30;;;4.30;;
11771;SDS011;12556;55.748;13.194;2022-12-31T03:27:07;10.30;;;4.73;;
11771;SDS011;12556;55.748;13.194;2022-12-31T03:29:34;7.00;;;3.77;;
11771;SDS011;12556;55.748;13.194;2022-12-31T03:32:01;10.43;;;4.47;;
11771;SDS011;12556;55.748;13.194;2022-12-31T03:34:29;11.37;;;4.50;;
11771;SDS011;12556;55.748;13.194;2022-12-31T03:36:56;9.50;;;3.50;;
11771;SDS011;12556;55.748;13.194;2022-12-31T03:39:23;9.17;;;4.30;;
11771;SDS011;12556;55.748;13.194;2022-12-31T03:41:50;11.83;;;4.23;;
11771;SDS011;12556;55.748;13.194;2022-12-31T03:44:17;11.33;;;4.47;;
11771;SDS011;12556;55.748;13.194;2022-12-31T03:46:44;12.17;;;5.37;;
11771;SDS011;12556;55.748;13.194;2022-12-31T03:49:11;11.73;;;4.53;;
11771;SDS011;12556;55.748;13.194;2022-12-31T03:51:39;12.50;;;4.10;;
11771;SDS011;12556;55.748;13.194;2022-12-31T03:54:06;12.37;;;4.10;;
11771;SDS011;12556;55.748;13.194;2022-12-31T03:56:33;9.30;;;4.53;;
11771;SDS011;12556;55.748;13.194;2022-12-31T03:59:00;7.03;;;3.97;;
11771;SDS011;12556;55.748;13.194;2022-12-31T04:01:27;7.37;;;4.00;;
11771;SDS011;12556;55.748;13.194;2022-12-31T04:03:54;9.50;;;4.30;;
11771;SDS011;12556;55.748;13.194;2022-12-31T04:06:20;12.53;;;4.17;;
11771;SDS011;12556;55.748;13.194;2022-12-31T04:08:49;11.33;;;4.13;;
11771;SDS011;12556;55.748;13.194;2022-12-31T04:11:15;10.47;;;4.40;;
11771;SDS011;12556;55.748;13.194;2022-12-31T04:13:42;8.50;;;4.30;;
11771;SDS011;12556;55.748;13.194;2022-12-31T04:16:09;11.07;;;4.97;;
11771;SDS011;12556;55.748;13.194;2022-12-31T04:18:36;11.97;;;4.67;;
11771;SDS011;12556;55.748;13.194;2022-12-31T04:21:03;7.07;;;4.07;;
11771;SDS011;12556;55.748;13.194;2022-12-31T04:23:31;8.83;;;4.40;;
11771;SDS011;12556;55.748;13.194;2022-12-31T04:25:59;9.80;;;4.93;;
11771;SDS011;12556;55.748;13.194;2022-12-31T04:28:26;12.40;;;5.40;;
11771;SDS011;12556;55.748;13.194;2022-12-31T04:30:53;9.43;;;5.67;;
11771;SDS011;12556;55.748;13.194;2022-12-31T04:33:20;12.77;;;6.07;;
11771;SDS011;12556;55.748;13.194;2022-12-31T04:35:46;8.17;;;5.57;;
11771;SDS011;12556;55.748;13.194;2022-12-31T04:38:13;10.90;;;4.97;;
11771;SDS011;12556;55.748;13.194;2022-12-31T04:40:40;13.60;;;5.57;;
11771;SDS011;12556;55.748;13.194;2022-12-31T04:43:25;12.20;;;5.50;;
11771;SDS011;12556;55.748;13.194;2022-12-31T04:45:52;14.67;;;5.43;;
11771;SDS011;12556;55.748;13.194;2022-12-31T04:48:18;13.17;;;5.20;;
11771;SDS011;12556;55.748;13.194;2022-12-31T04:50:45;9.47;;;5.20;;
11771;SDS011;12556;55.748;13.194;2022-12-31T04:53:12;11.00;;;5.53;;
11771;SDS011;12556;55.748;13.194;2022-12-31T04:55:39;12.13;;;5.67;;
11771;SDS011;12556;55.748;13.194;2022-12-31T04:58:06;10.17;;;5.40;;
11771;SDS011;12556;55.748;13.194;2022-12-31T05:00:34;18.50;;;5.93;;
11771;SDS011;12556;55.748;13.194;2022-12-31T05:03:01;13.37;;;5.60;;
11771;SDS011;12556;55.748;13.194;2022-12-31T05:05:28;12.03;;;5.60;;
11771;SDS011;12556;55.748;13.194;2022-12-31T05:07:55;11.60;;;5.50;;
11771;SDS011;12556;55.748;13.194;2022-12-31T05:10:22;14.70;;;5.53;;
11771;SDS011;12556;55.748;13.194;2022-12-31T05:12:49;9.23;;;4.67;;
11771;SDS011;12556;55.748;13.194;2022-12-31T05:15:16;12.33;;;5.07;;
11771;SDS011;12556;55.748;13.194;2022-12-31T05:17:44;13.33;;;4.83;;
11771;SDS011;12556;55.748;13.194;2022-12-31T05:20:11;11.80;;;4.63;;
11771;SDS011;12556;55.748;13.194;2022-12-31T05:22:38;10.73;;;5.27;;
11771;SDS011;12556;55.748;13.194;2022-12-31T05:25:05;15.23;;;4.20;;
11771;SDS011;12556;55.748;13.194;2022-12-31T05:27:32;8.03;;;3.83;;
11771;SDS011;12556;55.748;13.194;2022-12-31T05:30:01;13.00;;;4.50;;
11771;SDS011;12556;55.748;13.194;2022-12-31T05:32:28;10.93;;;3.83;;
11771;SDS011;12556;55.748;13.194;2022-12-31T05:34:57;8.47;;;4.10;;
11771;SDS011;12556;55.748;13.194;2022-12-31T05:37:24;11.53;;;4.50;;
11771;SDS011;12556;55.748;13.194;2022-12-31T05:39:52;11.93;;;4.80;;
11771;SDS011;12556;55.748;13.194;2022-12-31T05:42:19;6.93;;;3.67;;
11771;SDS011;12556;55.748;13.194;2022-12-31T05:44:47;12.70;;;4.50;;
11771;SDS011;12556;55.748;13.194;2022-12-31T05:47:13;11.93;;;5.00;;
11771;SDS011;12556;55.748;13.194;2022-12-31T05:49:42;11.37;;;4.33;;
11771;SDS011;12556;55.748;13.194;2022-12-31T05:52:10;10.27;;;4.13;;
11771;SDS011;12556;55.748;13.194;2022-12-31T05:54:37;9.80;;;4.53;;
11771;SDS011;12556;55.748;13.194;2022-12-31T05:57:04;14.47;;;4.87;;
11771;SDS011;12556;55.748;13.194;2022-12-31T05:59:31;13.30;;;4.20;;
11771;SDS011;12556;55.748;13.194;2022-12-31T06:01:59;9.37;;;4.33;;
11771;SDS011;12556;55.748;13.194;2022-12-31T06:04:26;10.53;;;4.27;;
11771;SDS011;12556;55.748;13.194;2022-12-31T06:06:53;9.13;;;4.67;;
11771;SDS011;12556;55.748;13.194;2022-12-31T06:09:21;10.03;;;4.37;;
11771;SDS011;12556;55.748;13.194;2022-12-31T06:11:49;10.37;;;4.27;;
11771;SDS011;12556;55.748;13.194;2022-12-31T06:14:16;10.37;;;4.37;;
11771;SDS011;12556;55.748;13.194;2022-12-31T06:16:43;10.10;;;4.70;;
11771;SDS011;12556;55.748;13.194;2022-12-31T06:19:10;9.53;;;4.60;;
11771;SDS011;12556;55.748;13.194;2022-12-31T06:21:37;9.60;;;5.40;;
11771;SDS011;12556;55.748;13.194;2022-12-31T06:24:04;11.33;;;5.10;;
11771;SDS011;12556;55.748;13.194;2022-12-31T06:26:32;10.10;;;5.40;;
11771;SDS011;12556;55.748;13.194;2022-12-31T06:28:59;16.33;;;7.60;;
11771;SDS011;12556;55.748;13.194;2022-12-31T06:31:26;14.30;;;7.57;;
11771;SDS011;12556;55.748;13.194;2022-12-31T06:33:53;16.23;;;7.83;;
11771;SDS011;12556;55.748;13.194;2022-12-31T06:36:20;14.90;;;8.13;;
11771;SDS011;12556;55.748;13.194;2022-12-31T06:38:47;13.83;;;8.83;;
11771;SDS011;12556;55.748;13.194;2022-12-31T06:41:15;15.47;;;7.33;;
11771;SDS011;12556;55.748;13.194;2022-12-31T06:43:44;11.93;;;7.40;;
11771;SDS011;12556;55.748;13.194;2022-12-31T06:46:12;12.50;;;7.53;;
11771;SDS011;12556;55.748;13.194;2022-12-31T06:48:40;12.70;;;7.83;;
11771;SDS011;12556;55.748;13.194;2022-12-31T06:51:10;15.90;;;8.07;;
11771;SDS011;12556;55.748;13.194;2022-12-31T06:53:38;15.30;;;7.50;;
11771;SDS011;12556;55.748;13.194;2022-12-31T06:56:05;15.27;;;7.33;;
11771;SDS011;12556;55.748;13.194;2022-12-31T06:58:33;15.10;;;7.00;;
11771;SDS011;12556;55.748;13.194;2022-12-31T07:01:04;13.57;;;7.20;;
11771;SDS011;12556;55.748;13.194;2022-12-31T07:03:39;13.83;;;7.67;;
11771;SDS011;12556;55.748;13.194;2022-12-31T07:06:09;12.70;;;7.90;;
11771;SDS011;12556;55.748;13.194;2022-12-31T07:08:43;13.03;;;7.73;;
11771;SDS011;12556;55.748;13.194;2022-12-31T07:11:17;11.57;;;8.43;;
11771;SDS011;12556;55.748;13.194;2022-12-31T07:13:50;13.83;;;7.83;;
11771;SDS011;12556;55.748;13.194;2022-12-31T07:16:35;16.03;;;8.40;;
11771;SDS011;12556;55.748;13.194;2022-12-31T07:19:16;16.23;;;8.83;;
11771;SDS011;12556;55.748;13.194;2022-12-31T07:21:51;11.93;;;8.50;;
11771;SDS011;12556;55.748;13.194;2022-12-31T07:24:21;12.43;;;7.93;;
11771;SDS011;12556;55.748;13.194;2022-12-31T07:26:55;10.23;;;7.63;;
11771;SDS011;12556;55.748;13.194;2022-12-31T07:29:37;12.40;;;7.30;;
11771;SDS011;12556;55.748;13.194;2022-12-31T07:32:20;15.57;;;8.30;;
11771;SDS011;12556;55.748;13.194;2022-12-31T07:35:00;13.47;;;7.63;;
11771;SDS011;12556;55.748;13.194;2022-12-31T07:37:34;13.00;;;8.53;;
11771;SDS011;12556;55.748;13.194;2022-12-31T07:40:10;11.97;;;7.93;;
11771;SDS011;12556;55.748;13.194;2022-12-31T07:42:46;13.37;;;7.67;;
11771;SDS011;12556;55.748;13.194;2022-12-31T07:45:25;12.90;;;6.90;;
11771;SDS011;12556;55.748;13.194;2022-12-31T07:48:02;12.03;;;7.07;;
11771;SDS011;12556;55.748;13.194;2022-12-31T07:50:39;12.23;;;7.37;;
11771;SDS011;12556;55.748;13.194;2022-12-31T07:53:07;11.83;;;7.50;;
11771;SDS011;12556;55.748;13.194;2022-12-31T07:55:34;12.37;;;6.93;;
11771;SDS011;12556;55.748;13.194;2022-12-31T07:58:02;10.73;;;7.13;;
11771;SDS011;12556;55.748;13.194;2022-12-31T08:00:37;12.73;;;6.60;;
11771;SDS011;12556;55.748;13.194;2022-12-31T08:03:09;10.40;;;6.50;;
11771;SDS011;12556;55.748;13.194;2022-12-31T08:05:49;9.50;;;6.47;;
11771;SDS011;12556;55.748;13.194;2022-12-31T08:08:22;12.50;;;6.83;;
11771;SDS011;12556;55.748;13.194;2022-12-31T08:10:59;11.20;;;6.20;;
11771;SDS011;12556;55.748;13.194;2022-12-31T08:13:34;8.90;;;6.90;;
11771;SDS011;12556;55.748;13.194;2022-12-31T08:16:01;13.17;;;6.57;;
11771;SDS011;12556;55.748;13.194;2022-12-31T08:18:30;9.87;;;6.60;;
11771;SDS011;12556;55.748;13.194;2022-12-31T08:20:59;12.80;;;6.60;;
11771;SDS011;12556;55.748;13.194;2022-12-31T08:23:45;12.73;;;6.43;;
11771;SDS011;12556;55.748;13.194;2022-12-31T08:26:22;9.80;;;6.17;;
11771;SDS011;12556;55.748;13.194;2022-12-31T08:29:02;11.70;;;6.27;;
11771;SDS011;12556;55.748;13.194;2022-12-31T08:31:39;7.90;;;6.17;;
11771;SDS011;12556;55.748;13.194;2022-12-31T08:34:16;9.30;;;5.90;;
11771;SDS011;12556;55.748;13.194;2022-12-31T08:36:51;13.43;;;6.37;;
11771;SDS011;12556;55.748;13.194;2022-12-31T08:39:26;10.40;;;6.87;;
11771;SDS011;12556;55.748;13.194;2022-12-31T08:42:12;10.63;;;6.80;;
11771;SDS011;12556;55.748;13.194;2022-12-31T08:44:48;8.60;;;6.40;;
11771;SDS011;12556;55.748;13.194;2022-12-31T08:47:23;12.37;;;6.50;;
11771;SDS011;12556;55.748;13.194;2022-12-31T08:49:57;13.07;;;7.20;;
11771;SDS011;12556;55.748;13.194;2022-12-31T08:52:25;10.20;;;7.37;;
11771;SDS011;12556;55.748;13.194;2022-12-31T08:54:53;8.37;;;7.43;;
11771;SDS011;12556;55.748;13.194;2022-12-31T08:57:22;10.67;;;8.13;;
11771;SDS011;12556;55.748;13.194;2022-12-31T08:59:57;10.33;;;7.90;;
11771;SDS011;12556;55.748;13.194;2022-12-31T09:05:24;14.83;;;9.10;;
11771;SDS011;12556;55.748;13.194;2022-12-31T09:07:59;15.47;;;8.67;;
11771;SDS011;12556;55.748;13.194;2022-12-31T09:10:38;11.57;;;8.77;;
11771;SDS011;12556;55.748;13.194;2022-12-31T09:13:11;13.33;;;9.27;;
11771;SDS011;12556;55.748;13.194;2022-12-31T09:15:46;14.40;;;8.57;;
11771;SDS011;12556;55.748;13.194;2022-12-31T09:18:17;9.97;;;8.67;;
11771;SDS011;12556;55.748;13.194;2022-12-31T09:20:46;10.13;;;8.87;;
11771;SDS011;12556;55.748;13.194;2022-12-31T09:23:14;10.43;;;8.63;;
11771;SDS011;12556;55.748;13.194;2022-12-31T09:25:42;13.30;;;8.93;;
11771;SDS011;12556;55.748;13.194;2022-12-31T09:28:15;10.40;;;8.80;;
11771;SDS011;12556;55.748;13.194;2022-12-31T09:30:48;10.57;;;8.13;;
11771;SDS011;12556;55.748;13.194;2022-12-31T09:33:30;10.07;;;7.90;;
11771;SDS011;12556;55.748;13.194;2022-12-31T09:36:06;12.80;;;9.03;;
11771;SDS011;12556;55.748;13.194;2022-12-31T09:38:36;11.07;;;7.93;;
11771;SDS011;12556;55.748;13.194;2022-12-31T09:41:15;10.30;;;8.27;;
11771;SDS011;12556;55.748;13.194;2022-12-31T09:44:02;12.67;;;8.10;;
11771;SDS011;12556;55.748;13.194;2022-12-31T09:47:10;9.50;;;7.90;;
11771;SDS011;12556;55.748;13.194;2022-12-31T09:53:09;12.50;;;7.03;;
11771;SDS011;12556;55.748;13.194;2022-12-31T09:56:02;10.77;;;7.53;;
11771;SDS011;12556;55.748;13.194;2022-12-31T09:58:39;9.30;;;7.03;;
11771;SDS011;12556;55.748;13.194;2022-12-31T10:01:12;13.33;;;6.67;;
11771;SDS011;12556;55.748;13.194;2022-12-31T10:06:50;9.10;;;6.30;;
11771;SDS011;12556;55.748;13.194;2022-12-31T10:09:36;11.13;;;5.80;;
11771;SDS011;12556;55.748;13.194;2022-12-31T10:15:37;9.97;;;5.27;;
11771;SDS011;12556;55.748;13.194;2022-12-31T10:18:22;9.40;;;5.50;;
11771;SDS011;12556;55.748;13.194;2022-12-31T10:21:05;9.30;;;5.17;;
11771;SDS011;12556;55.748;13.194;2022-12-31T10:23:53;7.57;;;4.93;;
11771;SDS011;12556;55.748;13.194;2022-12-31T10:26:39;11.33;;;6.23;;
11771;SDS011;12556;55.748;13.194;2022-12-31T10:29:21;6.97;;;5.47;;
11771;SDS011;12556;55.748;13.194;2022-12-31T10:31:55;7.93;;;5.43;;
11771;SDS011;12556;55.748;13.194;2022-12-31T10:34:39;7.07;;;6.03;;
11771;SDS011;12556;55.748;13.194;2022-12-31T10:37:19;13.10;;;6.93;;
11771;SDS011;12556;55.748;13.194;2022-12-31T10:39:52;10.30;;;7.33;;
11771;SDS011;12556;55.748;13.194;2022-12-31T10:51:52;10.63;;;7.40;;
11771;SDS011;12556;55.748;13.194;2022-12-31T10:54:39;10.13;;;6.97;;
11771;SDS011;12556;55.748;13.194;2022-12-31T11:00:30;8.13;;;5.93;;
11771;SDS011;12556;55.748;13.194;2022-12-31T11:06:34;6.67;;;5.93;;
11771;SDS011;12556;55.748;13.194;2022-12-31T11:09:33;9.50;;;5.57;;
11771;SDS011;12556;55.748;13.194;2022-12-31T11:12:28;7.53;;;5.20;;
11771;SDS011;12556;55.748;13.194;2022-12-31T11:15:31;7.53;;;5.83;;
11771;SDS011;12556;55.748;13.194;2022-12-31T11:18:11;6.43;;;5.27;;
11771;SDS011;12556;55.748;13.194;2022-12-31T11:20:58;10.00;;;5.93;;
11771;SDS011;12556;55.748;13.194;2022-12-31T11:23:37;6.50;;;5.50;;
11771;SDS011;12556;55.748;13.194;2022-12-31T11:26:12;6.37;;;5.67;;
11771;SDS011;12556;55.748;13.194;2022-12-31T11:29:02;7.07;;;5.97;;
11771;SDS011;12556;55.748;13.194;2022-12-31T11:31:48;6.27;;;5.57;;
11771;SDS011;12556;55.748;13.194;2022-12-31T11:34:28;10.80;;;5.40;;
11771;SDS011;12556;55.748;13.194;2022-12-31T11:37:23;6.87;;;6.13;;
11771;SDS011;12556;55.748;13.194;2022-12-31T11:39:58;7.10;;;5.73;;
11771;SDS011;12556;55.748;13.194;2022-12-31T11:42:40;6.53;;;5.03;;
11771;SDS011;12556;55.748;13.194;2022-12-31T11:45:17;6.07;;;5.10;;
11771;SDS011;12556;55.748;13.194;2022-12-31T11:47:56;5.50;;;4.93;;
11771;SDS011;12556;55.748;13.194;2022-12-31T11:50:31;4.40;;;3.97;;
11771;SDS011;12556;55.748;13.194;2022-12-31T11:53:09;8.57;;;4.57;;
11771;SDS011;12556;55.748;13.194;2022-12-31T11:55:59;4.83;;;4.40;;
11771;SDS011;12556;55.748;13.194;2022-12-31T11:58:36;6.20;;;4.33;;
11771;SDS011;12556;55.748;13.194;2022-12-31T12:01:04;10.43;;;4.40;;
11771;SDS011;12556;55.748;13.194;2022-12-31T12:03:37;6.00;;;4.23;;
11771;SDS011;12556;55.748;13.194;2022-12-31T12:06:07;8.23;;;4.37;;
11771;SDS011;12556;55.748;13.194;2022-12-31T12:08:37;7.00;;;4.03;;
11771;SDS011;12556;55.748;13.194;2022-12-31T12:11:06;7.83;;;3.90;;
11771;SDS011;12556;55.748;13.194;2022-12-31T12:13:39;5.37;;;3.70;;
11771;SDS011;12556;55.748;13.194;2022-12-31T12:16:06;5.30;;;3.57;;
11771;SDS011;12556;55.748;13.194;2022-12-31T12:18:34;5.43;;;3.53;;
11771;SDS011;12556;55.748;13.194;2022-12-31T12:21:07;5.13;;;3.50;;
11771;SDS011;12556;55.748;13.194;2022-12-31T12:23:36;4.63;;;3.63;;
11771;SDS011;12556;55.748;13.194;2022-12-31T12:26:03;5.03;;;3.67;;
11771;SDS011;12556;55.748;13.194;2022-12-31T12:28:40;7.30;;;5.07;;
11771;SDS011;12556;55.748;13.194;2022-12-31T12:31:13;11.33;;;7.23;;
11771;SDS011;12556;55.748;13.194;2022-12-31T12:33:45;11.17;;;4.43;;
11771;SDS011;12556;55.748;13.194;2022-12-31T12:36:15;9.37;;;4.30;;
11771;SDS011;12556;55.748;13.194;2022-12-31T12:38:42;6.73;;;4.30;;
11771;SDS011;12556;55.748;13.194;2022-12-31T12:41:10;5.83;;;3.90;;
11771;SDS011;12556;55.748;13.194;2022-12-31T12:43:43;4.23;;;3.77;;
11771;SDS011;12556;55.748;13.194;2022-12-31T12:46:17;4.20;;;3.80;;
11771;SDS011;12556;55.748;13.194;2022-12-31T12:48:46;5.20;;;3.80;;
11771;SDS011;12556;55.748;13.194;2022-12-31T12:51:22;6.23;;;4.17;;
11771;SDS011;12556;55.748;13.194;2022-12-31T12:54:07;5.37;;;3.70;;
11771;SDS011;12556;55.748;13.194;2022-12-31T12:56:45;4.37;;;3.70;;
11771;SDS011;12556;55.748;13.194;2022-12-31T13:02:17;3.70;;;3.27;;
11771;SDS011;12556;55.748;13.194;2022-12-31T13:04:58;5.30;;;3.20;;
11771;SDS011;12556;55.748;13.194;2022-12-31T13:07:44;4.47;;;3.87;;
11771;SDS011;12556;55.748;13.194;2022-12-31T13:10:32;4.27;;;3.37;;
11771;SDS011;12556;55.748;13.194;2022-12-31T13:13:19;4.13;;;3.73;;
11771;SDS011;12556;55.748;13.194;2022-12-31T13:15:55;7.57;;;3.90;;
11771;SDS011;12556;55.748;13.194;2022-12-31T13:18:38;6.70;;;3.77;;
11771;SDS011;12556;55.748;13.194;2022-12-31T13:21:18;5.13;;;3.77;;
11771;SDS011;12556;55.748;13.194;2022-12-31T13:24:05;6.17;;;4.23;;
11771;SDS011;12556;55.748;13.194;2022-12-31T13:26:41;5.57;;;3.90;;
11771;SDS011;12556;55.748;13.194;2022-12-31T13:29:14;5.60;;;3.47;;
11771;SDS011;12556;55.748;13.194;2022-12-31T13:31:45;4.97;;;3.43;;
11771;SDS011;12556;55.748;13.194;2022-12-31T13:34:15;4.37;;;3.33;;
11771;SDS011;12556;55.748;13.194;2022-12-31T13:36:46;7.50;;;4.10;;
11771;SDS011;12556;55.748;13.194;2022-12-31T13:39:17;6.17;;;3.67;;
11771;SDS011;12556;55.748;13.194;2022-12-31T13:41:49;5.70;;;3.33;;
11771;SDS011;12556;55.748;13.194;2022-12-31T13:44:22;5.33;;;3.83;;
11771;SDS011;12556;55.748;13.194;2022-12-31T13:46:54;4.47;;;3.53;;
11771;SDS011;12556;55.748;13.194;2022-12-31T13:49:27;5.83;;;3.90;;
11771;SDS011;12556;55.748;13.194;2022-12-31T13:51:57;3.60;;;3.30;;
11771;SDS011;12556;55.748;13.194;2022-12-31T13:54:32;3.37;;;3.07;;
11771;SDS011;12556;55.748;13.194;2022-12-31T13:57:03;4.17;;;3.53;;
11771;SDS011;12556;55.748;13.194;2022-12-31T13:59:37;4.27;;;3.13;;
11771;SDS011;12556;55.748;13.194;2022-12-31T14:04:56;3.60;;;3.20;;
11771;SDS011;12556;55.748;13.194;2022-12-31T14:07:27;6.10;;;3.47;;
11771;SDS011;12556;55.748;13.194;2022-12-31T14:10:04;5.07;;;3.20;;
11771;SDS011;12556;55.748;13.194;2022-12-31T14:12:38;4.60;;;3.17;;
11771;SDS011;12556;55.748;13.194;2022-12-31T14:15:12;4.63;;;2.80;;
11771;SDS011;12556;55.748;13.194;2022-12-31T14:17:46;4.10;;;3.70;;
11771;SDS011;12556;55.748;13.194;2022-12-31T14:20:17;3.20;;;2.87;;
11771;SDS011;12556;55.748;13.194;2022-12-31T14:22:55;3.50;;;3.20;;
11771;SDS011;12556;55.748;13.194;2022-12-31T14:25:30;4.40;;;2.87;;
11771;SDS011;12556;55.748;13.194;2022-12-31T14:28:02;3.87;;;2.47;;
11771;SDS011;12556;55.748;13.194;2022-12-31T14:30:32;5.60;;;3.23;;
11771;SDS011;12556;55.748;13.194;2022-12-31T14:33:17;3.13;;;2.87;;
11771;SDS011;12556;55.748;13.194;2022-12-31T14:35:59;2.87;;;2.67;;
11771;SDS011;12556;55.748;13.194;2022-12-31T14:38:37;5.63;;;2.87;;
11771;SDS011;12556;55.748;13.194;2022-12-31T14:41:22;2.90;;;2.70;;
11771;SDS011;12556;55.748;13.194;2022-12-31T14:44:01;4.33;;;2.50;;
11771;SDS011;12556;55.748;13.194;2022-12-31T14:46:38;2.70;;;2.50;;
11771;SDS011;12556;55.748;13.194;2022-12-31T14:49:22;2.30;;;2.00;;
11771;SDS011;12556;55.748;13.194;2022-12-31T14:52:06;4.07;;;2.40;;
11771;SDS011;12556;55.748;13.194;2022-12-31T14:54:34;3.47;;;2.10;;
11771;SDS011;12556;55.748;13.194;2022-12-31T14:57:09;3.53;;;2.40;;
11771;SDS011;12556;55.748;13.194;2022-12-31T14:59:50;2.57;;;2.37;;
11771;SDS011;12556;55.748;13.194;2022-12-31T15:02:24;3.23;;;2.63;;
11771;SDS011;12556;55.748;13.194;2022-12-31T15:05:03;3.30;;;2.80;;
11771;SDS011;12556;55.748;13.194;2022-12-31T15:07:40;2.40;;;2.20;;
11771;SDS011;12556;55.748;13.194;2022-12-31T15:10:18;2.80;;;2.60;;
11771;SDS011;12556;55.748;13.194;2022-12-31T15:12:58;3.07;;;2.77;;
11771;SDS011;12556;55.748;13.194;2022-12-31T15:15:42;3.73;;;2.30;;
11771;SDS011;12556;55.748;13.194;2022-12-31T15:18:27;2.70;;;2.50;;
11771;SDS011;12556;55.748;13.194;2022-12-31T15:21:09;3.53;;;2.60;;
11771;SDS011;12556;55.748;13.194;2022-12-31T15:23:51;4.87;;;2.30;;
11771;SDS011;12556;55.748;13.194;2022-12-31T15:26:19;2.50;;;2.30;;
11771;SDS011;12556;55.748;13.194;2022-12-31T15:28:56;3.10;;;2.23;;
11771;SDS011;12556;55.748;13.194;2022-12-31T15:31:25;4.40;;;2.20;;
11771;SDS011;12556;55.748;13.194;2022-12-31T15:33:55;3.60;;;2.30;;
11771;SDS011;12556;55.748;13.194;2022-12-31T15:36:24;3.03;;;2.00;;
11771;SDS011;12556;55.748;13.194;2022-12-31T15:39:02;3.40;;;2.77;;
11771;SDS011;12556;55.748;13.194;2022-12-31T15:41:49;3.53;;;2.40;;